Time;durP1;ratioP1;P1;durP2;ratioP2;P2;SDS_P1;SDS_P2;PMS_P1;PMS_P2;Temp;Humidity;BMP_temperature;BMP_pressure;BME280_temperature;BME280_humidity;BME280_pressure;Samples;Min_cycle;Max_cycle;Signal;HPM_P1;HPM_P2
2023/04/03 00:02:11;;;;;;;;;;;;;;;;;;6205361;23;19974;-86
2023/04/03 00:04:37;;;;;;;;;;;;;;;;;;6174763;23;19916;-87
2023/04/03 00:07:03;;;;;;;;;;;;;;;;;;6198621;23;19922;-86
2023/04/03 00:09:29;;;;;;;;;;;;;;;;;;6174169;23;19947;-87
2023/04/03 00:12:01;;;;;;;;;;;;;;;;;;6191290;23;19943;-85
2023/04/03 00:14:46;;;;;;;;;;;;;;;;;;6220963;23;19931;-86
2023/04/03 00:17:31;;;;;;;;;;;;;;;;;;6215039;23;19899;-87
2023/04/03 00:19:57;;;;;;;;;;;;;;;;;;6213949;23;19919;-85
2023/04/03 00:22:23;;;;;;;;;;;;;;;;;;6204448;23;19915;-86
2023/04/03 00:24:49;;;;;;;;;;;;;;;;;;6173571;23;19916;-86
2023/04/03 00:27:15;;;;;;;;;;;;;;;;;;6197629;23;19981;-85
2023/04/03 00:29:41;;;;;;;;;;;;;;;;;;6172635;23;19916;-86
2023/04/03 00:32:07;;;;;;;;;;;;;;;;;;6173486;23;19950;-86
2023/04/03 00:34:33;;;;;;;;;;;;;;;;;;6173410;23;19916;-86
2023/04/03 00:36:59;;;;;;;;;;;;;;;;;;6185115;23;19923;-87
2023/04/03 00:39:25;;;;;;;;;;;;;;;;;;6172725;23;20397;-87
2023/04/03 00:41:51;;;;;;;;;;;;;;;;;;6173450;23;19924;-86
2023/04/03 00:44:17;;;;;;;;;;;;;;;;;;6180677;23;19931;-85
2023/04/03 00:46:44;;;;;;;;;;;;;;;;;;6206046;23;19960;-86
2023/04/03 00:49:16;;;;;;;;;;;;;;;;;;6192419;23;19900;-85
2023/04/03 00:51:54;;;;;;;;;;;;;;;;;;6175948;23;19990;-85
2023/04/03 00:54:20;;;;;;;;;;;;;;;;;;6173774;23;19916;-86
2023/04/03 00:56:46;;;;;;;;;;;;;;;;;;6173563;23;19916;-85
2023/04/03 00:59:12;;;;;;;;;;;;;;;;;;6173874;23;19932;-86
2023/04/03 01:01:38;;;;;;;;;;;;;;;;;;6174378;23;19950;-86
2023/04/03 01:04:07;;;;;;;;;;;;;;;;;;6213074;23;19916;-86
2023/04/03 01:06:33;;;;;;;;;;;;;;;;;;6186169;23;19900;-85
2023/04/03 01:09:05;;;;;;;;;;;;;;;;;;6241788;23;19937;-86
2023/04/03 01:11:35;;;;;;;;;;;;;;;;;;6191902;23;19938;-85
2023/04/03 01:14:02;;;;;;;;;;;;;;;;;;6191963;23;19916;-85
2023/04/03 01:16:39;;;;;;;;;;;;;;;;;;6216823;23;19904;-85
2023/04/03 01:19:05;;;;;;;;;;;;;;;;;;6156459;23;19940;-86
2023/04/03 01:21:34;;;;;;;;;;;;;;;;;;6180849;23;19917;-87
2023/04/03 01:24:00;;;;;;;;;;;;;;;;;;6131461;23;19921;-86
2023/04/03 01:26:28;;;;;;;;;;;;;;;;;;6174909;23;19947;-85
2023/04/03 01:29:09;;;;;;;;;;;;;;;;;;6171508;23;19922;-86
2023/04/03 01:31:38;;;;;;;;;;;;;;;;;;6191494;23;19923;-86
2023/04/03 01:34:06;;;;;;;;;;;;;;;;;;6192345;23;19926;-88
2023/04/03 01:36:41;;;;;;;;;;;;;;;;;;6243862;23;19934;-85
2023/04/03 01:39:15;;;;;;;;;;;;;;;;;;6239658;23;19923;-86
2023/04/03 01:41:42;;;;;;;;;;;;;;;;;;6190402;23;19923;-87
2023/04/03 01:44:11;;;;;;;;;;;;;;;;;;6218200;23;19927;-85
2023/04/03 01:46:37;;;;;;;;;;;;;;;;;;6200830;23;19920;-87
2023/04/03 01:49:03;;;;;;;;;;;;;;;;;;6177353;23;19976;-87
2023/04/03 01:51:35;;;;;;;;;;;;;;;;;;6194296;23;19904;-86
2023/04/03 01:54:11;;;;;;;;;;;;;;;;;;6193473;23;19900;-87
2023/04/03 01:56:51;;;;;;;;;;;;;;;;;;6240637;23;19924;-87
2023/04/03 01:59:19;;;;;;;;;;;;;;;;;;6215412;23;19924;-86
2023/04/03 02:01:52;;;;;;;;;;;;;;;;;;6219846;23;19920;-87
2023/04/03 02:04:19;;;;;;;;;;;;;;;;;;6243054;23;19900;-87
2023/04/03 02:06:56;;;;;;;;;;;;;;;;;;6195790;23;19907;-86
2023/04/03 02:09:37;;;;;;;;;;;;;;;;;;6216995;23;19923;-86
2023/04/03 02:12:23;;;;;;;;;;;;;;;;;;6242005;23;19935;-87
2023/04/03 02:14:50;;;;;;;;;;;;;;;;;;6191462;23;19904;-86
2023/04/03 02:17:17;;;;;;;;;;;;;;;;;;6178943;23;19923;-86
2023/04/03 02:19:43;;;;;;;;;;;;;;;;;;6204681;23;19923;-85
2023/04/03 02:22:15;;;;;;;;;;;;;;;;;;6191302;23;19900;-86
2023/04/03 02:24:42;;;;;;;;;;;;;;;;;;6192500;23;19916;-86
2023/04/03 02:27:08;;;;;;;;;;;;;;;;;;6193002;23;19923;-86
2023/04/03 02:29:46;;;;;;;;;;;;;;;;;;6218338;23;19956;-86
2023/04/03 02:32:21;;;;;;;;;;;;;;;;;;6243849;23;19900;-86
2023/04/03 02:34:55;;;;;;;;;;;;;;;;;;6193885;23;19927;-86
2023/04/03 02:37:30;;;;;;;;;;;;;;;;;;6154470;23;20777;-93
2023/04/03 02:39:57;;;;;;;;;;;;;;;;;;6183733;23;19956;-94
2023/04/03 02:50:20;;;;;;;;;;;;;;;;;;6146789;23;19944;-93
2023/04/03 02:52:45;;;;;;;;;;;;;;;;;;6146874;23;20331;-93
2023/04/03 02:55:21;;;;;;;;;;;;;;;;;;6150723;23;19920;-85
2023/04/03 02:57:47;;;;;;;;;;;;;;;;;;6158441;23;19923;-85
2023/04/03 03:00:30;;;;;;;;;;;;;;;;;;6180717;23;19901;-86
2023/04/03 03:02:59;;;;;;;;;;;;;;;;;;6158497;23;19920;-87
2023/04/03 03:05:28;;;;;;;;;;;;;;;;;;6158171;23;19940;-85
2023/04/03 03:07:55;;;;;;;;;;;;;;;;;;6131381;23;19917;-86
2023/04/03 03:10:21;;;;;;;;;;;;;;;;;;6148183;23;20043;-85
2023/04/03 03:12:47;;;;;;;;;;;;;;;;;;6140131;23;20339;-84
2023/04/03 03:15:15;;;;;;;;;;;;;;;;;;6157051;23;19921;-86
2023/04/03 03:17:41;;;;;;;;;;;;;;;;;;6157746;23;19908;-85
2023/04/03 03:20:07;;;;;;;;;;;;;;;;;;6158049;23;19907;-85
2023/04/03 03:22:48;;;;;;;;;;;;;;;;;;6180021;23;19920;-86
2023/04/03 03:25:33;;;;;;;;;;;;;;;;;;6183325;23;19947;-86
2023/04/03 03:28:11;;;;;;;;;;;;;;;;;;6182980;23;19943;-87
2023/04/03 03:30:43;;;;;;;;;;;;;;;;;;6181280;23;19908;-87
2023/04/03 03:33:10;;;;;;;;;;;;;;;;;;6157684;23;19905;-87
2023/04/03 03:35:40;;;;;;;;;;;;;;;;;;6157872;23;19904;-87
2023/04/03 03:38:16;;;;;;;;;;;;;;;;;;6182599;23;19940;-86
2023/04/03 03:41:01;;;;;;;;;;;;;;;;;;6183215;23;19919;-87
2023/04/03 03:43:30;;;;;;;;;;;;;;;;;;6182789;23;19927;-86
2023/04/03 03:46:06;;;;;;;;;;;;;;;;;;6152154;23;20236;-85
2023/04/03 03:48:45;;;;;;;;;;;;;;;;;;6181737;23;19920;-86
2023/04/03 03:51:37;;;;;;;;;;;;;;;;;;6184682;23;19920;-85
2023/04/03 03:54:08;;;;;;;;;;;;;;;;;;6182231;23;19917;-85
2023/04/03 03:56:39;;;;;;;;;;;;;;;;;;6182988;23;19916;-84
2023/04/03 03:59:11;;;;;;;;;;;;;;;;;;6183087;23;20291;-92
2023/04/03 04:09:53;;;;;;;;;;;;;;;;;;6187765;23;19920;-93
2023/04/03 04:33:05;;;;;;;;;;;;;;;;;;6148186;23;19927;-93
2023/04/03 04:45:58;;;;;;;;;;;;;;;;;;6205106;23;19924;-93
2023/04/03 04:51:00;;;;;;;;;;;;;;;;;;6191609;23;19976;-91
2023/04/03 05:40:12;;;;;;;;;;;;;;;;;;6201073;23;19904;-94
2023/04/03 05:42:51;;;;;;;;;;;;;;;;;;6215553;23;19904;-93
2023/04/03 05:58:57;;;;;;;;;;;;;;;;;;6209572;23;19927;-94
2023/04/03 06:01:23;;;;;;;;;;;;;;;;;;6183742;23;19929;-95
2023/04/03 06:03:51;;;;;;;;;;;;;;;;;;6189735;23;19929;-93
2023/04/03 06:22:12;;;;;;;;;;;;;;;;;;6202002;23;19916;-94
2023/04/03 06:24:58;;;;;;;;;;;;;;;;;;6215466;23;19919;-91
2023/04/03 06:27:24;;;;;;;;;;;;;;;;;;6189490;23;19927;-93
2023/04/03 06:29:52;;;;;;;;;;;;;;;;;;6186820;23;19904;-93
2023/04/03 06:45:39;;;;;;;;;;;;;;;;;;6213369;23;19922;-94
2023/04/03 06:48:05;;;;;;;;;;;;;;;;;;6189182;23;19904;-94
2023/04/03 06:50:34;;;;;;;;;;;;;;;;;;6212572;23;19904;-96
2023/04/03 06:53:09;;;;;;;;;;;;;;;;;;6211443;23;19900;-94
2023/04/03 07:00:48;;;;;;;;;;;;;;;;;;6193671;23;19904;-94
2023/04/03 07:03:26;;;;;;;;;;;;;;;;;;6214078;23;19935;-96
2023/04/03 07:05:52;;;;;;;;;;;;;;;;;;6182710;23;19924;-92
2023/04/03 07:08:18;;;;;;;;;;;;;;;;;;6183991;23;19900;-93
2023/04/03 07:10:44;;;;;;;;;;;;;;;;;;6178967;23;19916;-95
2023/04/03 07:13:10;;;;;;;;;;;;;;;;;;6171229;23;19904;-94
2023/04/03 07:20:52;;;;;;;;;;;;;;;;;;6183054;23;19924;-86
2023/04/03 07:23:21;;;;;;;;;;;;;;;;;;6177785;23;19901;-86
2023/04/03 07:25:50;;;;;;;;;;;;;;;;;;6205855;23;19920;-87
2023/04/03 07:30:52;;;;;;;;;;;;;;;;;;6199034;23;19947;-86
2023/04/03 07:33:18;;;;;;;;;;;;;;;;;;6175206;23;19916;-85
2023/04/03 07:35:44;;;;;;;;;;;;;;;;;;6172928;23;19924;-87
2023/04/03 07:38:10;;;;;;;;;;;;;;;;;;6172766;23;19920;-86
2023/04/03 07:40:36;;;;;;;;;;;;;;;;;;6184309;23;19900;-86
2023/04/03 07:43:06;;;;;;;;;;;;;;;;;;6187727;23;19960;-86
2023/04/03 07:45:33;;;;;;;;;;;;;;;;;;6186220;23;19916;-86
2023/04/03 07:47:59;;;;;;;;;;;;;;;;;;6175605;23;19917;-84
2023/04/03 07:50:26;;;;;;;;;;;;;;;;;;6175490;23;19923;-84
2023/04/03 07:52:56;;;;;;;;;;;;;;;;;;6181338;23;19920;-85
2023/04/03 07:55:25;;;;;;;;;;;;;;;;;;6207014;23;19920;-86
2023/04/03 07:57:57;;;;;;;;;;;;;;;;;;6209856;23;19920;-86
2023/04/03 08:02:55;;;;;;;;;;;;;;;;;;6178219;23;19916;-87
2023/04/03 08:05:22;;;;;;;;;;;;;;;;;;6187081;23;19916;-86
2023/04/03 08:07:51;;;;;;;;;;;;;;;;;;6186788;23;20329;-86
2023/04/03 08:10:32;;;;;;;;;;;;;;;;;;6210333;23;19920;-87
2023/04/03 08:13:00;;;;;;;;;;;;;;;;;;6186707;23;19906;-87
2023/04/03 08:15:26;;;;;;;;;;;;;;;;;;6172992;23;19920;-85
2023/04/03 08:17:52;;;;;;;;;;;;;;;;;;6181176;23;19916;-87
2023/04/03 08:20:20;;;;;;;;;;;;;;;;;;6181380;23;19923;-86
2023/04/03 08:22:46;;;;;;;;;;;;;;;;;;6178856;23;19963;-87
2023/04/03 08:25:13;;;;;;;;;;;;;;;;;;6179535;23;19940;-86
2023/04/03 08:27:39;;;;;;;;;;;;;;;;;;6183104;23;19916;-85
2023/04/03 08:30:06;;;;;;;;;;;;;;;;;;6178149;23;19916;-87
2023/04/03 08:32:34;;;;;;;;;;;;;;;;;;6182694;23;19927;-85
2023/04/03 08:35:01;;;;;;;;;;;;;;;;;;6177523;23;19924;-86
2023/04/03 08:40:34;;;;;;;;;;;;;;;;;;6222044;23;19926;-87
2023/04/03 08:46:10;;;;;;;;;;;;;;;;;;6225701;23;19919;-92
2023/04/03 08:48:36;;;;;;;;;;;;;;;;;;6179247;23;19947;-94
2023/04/03 08:51:28;;;;;;;;;;;;;;;;;;6215505;23;19928;-92
2023/04/03 08:53:54;;;;;;;;;;;;;;;;;;6182110;23;20235;-93
2023/04/03 08:56:20;;;;;;;;;;;;;;;;;;6180617;23;19928;-93
2023/04/03 08:58:47;;;;;;;;;;;;;;;;;;6183604;23;19924;-93
2023/04/03 09:01:16;;;;;;;;;;;;;;;;;;6186614;23;19906;-91
2023/04/03 09:03:47;;;;;;;;;;;;;;;;;;6186889;23;19943;-92
2023/04/03 09:06:33;;;;;;;;;;;;;;;;;;6177695;23;19916;-93
2023/04/03 09:09:00;;;;;;;;;;;;;;;;;;6185138;23;19920;-95
2023/04/03 09:11:27;;;;;;;;;;;;;;;;;;6186151;23;19951;-94
2023/04/03 09:13:53;;;;;;;;;;;;;;;;;;6182411;23;19920;-93
2023/04/03 09:16:19;;;;;;;;;;;;;;;;;;6209795;23;19960;-94
2023/04/03 09:18:47;;;;;;;;;;;;;;;;;;6187714;23;19904;-93
2023/04/03 09:21:13;;;;;;;;;;;;;;;;;;6187287;23;19955;-94
2023/04/03 09:23:42;;;;;;;;;;;;;;;;;;6181668;23;19986;-91
2023/04/03 09:26:08;;;;;;;;;;;;;;;;;;6186780;23;19960;-93
2023/04/03 09:28:35;;;;;;;;;;;;;;;;;;6180052;23;19900;-93
2023/04/03 09:31:01;;;;;;;;;;;;;;;;;;6187050;23;19923;-93
2023/04/03 09:33:30;;;;;;;;;;;;;;;;;;6183480;23;19916;-92
2023/04/03 09:35:56;;;;;;;;;;;;;;;;;;6185544;23;19904;-92
2023/04/03 09:38:25;;;;;;;;;;;;;;;;;;6153294;23;19936;-94
2023/04/03 09:40:57;;;;;;;;;;;;;;;;;;6160241;23;19912;-93
2023/04/03 09:43:27;;;;;;;;;;;;;;;;;;6160680;23;19901;-93
2023/04/03 09:53:40;;;;;;;;;;;;;;;;;;6204943;23;19928;-95
2023/04/03 09:56:07;;;;;;;;;;;;;;;;;;6186573;23;19920;-95
2023/04/03 09:58:43;;;;;;;;;;;;;;;;;;6184757;23;19948;-93
2023/04/03 10:01:27;;;;;;;;;;;;;;;;;;6189558;23;19904;-91
2023/04/03 10:03:56;;;;;;;;;;;;;;;;;;6188114;23;19904;-93
2023/04/03 10:06:26;;;;;;;;;;;;;;;;;;6210568;23;19929;-91
2023/04/03 10:08:52;;;;;;;;;;;;;;;;;;6187484;23;19924;-93
2023/04/03 10:11:33;;;;;;;;;;;;;;;;;;6209305;23;19944;-92
2023/04/03 10:14:05;;;;;;;;;;;;;;;;;;6189355;23;19905;-91
2023/04/03 10:16:42;;;;;;;;;;;;;;;;;;6188719;23;19904;-95
2023/04/03 10:19:14;;;;;;;;;;;;;;;;;;6182325;23;20116;-94
2023/04/03 10:21:43;;;;;;;;;;;;;;;;;;6178978;23;19904;-93
2023/04/03 10:24:33;;;;;;;;;;;;;;;;;;6193161;23;19919;-94
2023/04/03 10:27:02;;;;;;;;;;;;;;;;;;6164652;23;19912;-92
2023/04/03 10:29:38;;;;;;;;;;;;;;;;;;6165737;23;19917;-92
2023/04/03 10:32:10;;;;;;;;;;;;;;;;;;6201983;23;19920;-94
2023/04/03 10:34:49;;;;;;;;;;;;;;;;;;6211760;23;19916;-93
2023/04/03 10:37:18;;;;;;;;;;;;;;;;;;6160330;23;19920;-92
2023/04/03 10:40:04;;;;;;;;;;;;;;;;;;6188499;23;19944;-93
2023/04/03 10:42:30;;;;;;;;;;;;;;;;;;6186886;23;19922;-93
2023/04/03 10:47:36;;;;;;;;;;;;;;;;;;6198341;23;19904;-93
2023/04/03 10:53:10;;;;;;;;;;;;;;;;;;6194392;23;19930;-92
2023/04/03 10:55:36;;;;;;;;;;;;;;;;;;6185865;23;19927;-92
2023/04/03 10:58:07;;;;;;;;;;;;;;;;;;6187804;23;19901;-91
2023/04/03 11:00:37;;;;;;;;;;;;;;;;;;6186130;23;19920;-91
2023/04/03 11:03:05;;;;;;;;;;;;;;;;;;6188562;23;19911;-94
2023/04/03 11:05:34;;;;;;;;;;;;;;;;;;6185425;23;19977;-93
2023/04/03 11:08:00;;;;;;;;;;;;;;;;;;6176760;23;19916;-93
2023/04/03 11:15:38;;;;;;;;;;;;;;;;;;6201467;23;19959;-92
2023/04/03 11:18:26;;;;;;;;;;;;;;;;;;6211780;23;19928;-92
2023/04/03 11:20:52;;;;;;;;;;;;;;;;;;6187152;23;20345;-92
2023/04/03 11:23:18;;;;;;;;;;;;;;;;;;6212787;23;19905;-91
2023/04/03 11:25:45;;;;;;;;;;;;;;;;;;6188946;23;19920;-93
2023/04/03 11:28:34;;;;;;;;;;;;;;;;;;6212670;23;19947;-91
2023/04/03 11:31:19;;;;;;;;;;;;;;;;;;6213137;23;19920;-92
2023/04/03 11:33:45;;;;;;;;;;;;;;;;;;6187117;23;19943;-91
2023/04/03 11:39:21;;;;;;;;;;;;;;;;;;6186857;23;19900;-93
2023/04/03 11:41:53;;;;;;;;;;;;;;;;;;6210530;23;19900;-93
2023/04/03 11:44:19;;;;;;;;;;;;;;;;;;6181238;23;19920;-93
2023/04/03 11:46:45;;;;;;;;;;;;;;;;;;6187110;23;19905;-92
2023/04/03 11:49:11;;;;;;;;;;;;;;;;;;6181975;23;19916;-93
2023/04/03 11:59:28;;;;;;;;;;;;;;;;;;6220013;23;19920;-89
2023/04/03 12:01:55;;;;;;;;;;;;;;;;;;6241618;23;19904;-88
2023/04/03 12:04:21;;;;;;;;;;;;;;;;;;6187836;23;19920;-92
2023/04/03 12:06:51;;;;;;;;;;;;;;;;;;6215311;23;19920;-92
2023/04/03 12:09:18;;;;;;;;;;;;;;;;;;6172999;23;19913;-96
2023/04/03 12:11:46;;;;;;;;;;;;;;;;;;6188033;23;19915;-93
2023/04/03 12:16:51;;;;;;;;;;;;;;;;;;6191281;23;19956;-92
2023/04/03 12:19:28;;;;;;;;;;;;;;;;;;6207236;23;19919;-94
2023/04/03 12:21:59;;;;;;;;;;;;;;;;;;6181587;23;19944;-91
2023/04/03 12:27:04;;;;;;;;;;;;;;;;;;6167555;23;19920;-88
2023/04/03 12:29:30;;;;;;;;;;;;;;;;;;6186225;23;19928;-94
2023/04/03 12:35:03;;;;;;;;;;;;;;;;;;6209317;23;19953;-92
2023/04/03 12:50:32;;;;;;;;;;;;;;;;;;6170703;23;19939;-93
2023/04/03 13:03:56;;;;;;;;;;;;;;;;;;6151397;23;19935;-92
2023/04/03 13:06:22;;;;;;;;;;;;;;;;;;6191893;23;19920;-94
2023/04/03 13:08:49;;;;;;;;;;;;;;;;;;6192433;23;19904;-94
2023/04/03 13:11:43;;;;;;;;;;;;;;;;;;6243414;23;19919;-95
2023/04/03 13:17:14;;;;;;;;;;;;;;;;;;6197829;23;19927;-93
2023/04/03 13:19:59;;;;;;;;;;;;;;;;;;6213327;23;19904;-93
2023/04/03 13:25:04;;;;;;;;;;;;;;;;;;6212221;23;19904;-94
2023/04/03 13:27:35;;;;;;;;;;;;;;;;;;6207440;23;19920;-94
2023/04/03 13:30:11;;;;;;;;;;;;;;;;;;6218965;23;19904;-94
2023/04/03 13:32:40;;;;;;;;;;;;;;;;;;6188874;23;19920;-92
2023/04/03 13:35:09;;;;;;;;;;;;;;;;;;6214348;23;19979;-95
2023/04/03 13:37:35;;;;;;;;;;;;;;;;;;6208525;23;20441;-95
2023/04/03 13:40:11;;;;;;;;;;;;;;;;;;6218045;23;19904;-93
2023/04/03 13:42:37;;;;;;;;;;;;;;;;;;6187586;23;19924;-93
2023/04/03 13:45:03;;;;;;;;;;;;;;;;;;6182765;23;20397;-93
2023/04/03 13:47:29;;;;;;;;;;;;;;;;;;6183654;23;19919;-94
2023/04/03 13:49:55;;;;;;;;;;;;;;;;;;6189415;23;19904;-94
2023/04/03 13:54:57;;;;;;;;;;;;;;;;;;6156455;23;1771539;-93
2023/04/03 13:57:23;;;;;;;;;;;;;;;;;;6183094;23;19923;-92
2023/04/03 13:59:50;;;;;;;;;;;;;;;;;;6190000;23;19927;-94
2023/04/03 14:02:16;;;;;;;;;;;;;;;;;;6180247;23;19920;-92
2023/04/03 14:04:43;;;;;;;;;;;;;;;;;;6186656;23;19964;-89
2023/04/03 14:07:12;;;;;;;;;;;;;;;;;;6194821;23;19908;-93
2023/04/03 14:09:39;;;;;;;;;;;;;;;;;;6194477;23;19911;-92
2023/04/03 14:12:05;;;;;;;;;;;;;;;;;;6187614;23;19983;-91
2023/04/03 14:14:35;;;;;;;;;;;;;;;;;;6185972;23;19982;-92
2023/04/03 14:17:01;;;;;;;;;;;;;;;;;;6184281;23;19923;-92
2023/04/03 14:19:33;;;;;;;;;;;;;;;;;;6188967;23;19923;-92
2023/04/03 14:21:59;;;;;;;;;;;;;;;;;;6194249;23;19920;-92
2023/04/03 14:24:29;;;;;;;;;;;;;;;;;;6217251;23;19927;-93
2023/04/03 14:26:55;;;;;;;;;;;;;;;;;;6185930;23;20341;-93
2023/04/03 14:29:21;;;;;;;;;;;;;;;;;;6186091;23;19915;-92
2023/04/03 14:31:47;;;;;;;;;;;;;;;;;;6184437;23;19906;-94
2023/04/03 14:34:16;;;;;;;;;;;;;;;;;;6190130;23;19904;-92
2023/04/03 14:36:42;;;;;;;;;;;;;;;;;;6191697;23;19927;-94
2023/04/03 14:39:08;;;;;;;;;;;;;;;;;;6190131;23;19924;-95
2023/04/03 14:41:34;;;;;;;;;;;;;;;;;;6188338;23;19922;-93
2023/04/03 14:44:00;;;;;;;;;;;;;;;;;;6186884;23;20003;-94
2023/04/03 14:46:32;;;;;;;;;;;;;;;;;;6189044;23;19922;-92
2023/04/03 14:49:07;;;;;;;;;;;;;;;;;;6192823;23;19906;-93
2023/04/03 14:51:33;;;;;;;;;;;;;;;;;;6191263;23;19904;-94
2023/04/03 14:54:08;;;;;;;;;;;;;;;;;;6211505;23;19916;-94
2023/04/03 14:56:39;;;;;;;;;;;;;;;;;;6217868;23;19920;-94
2023/04/03 14:59:17;;;;;;;;;;;;;;;;;;6235178;23;19916;-93
2023/04/03 15:01:43;;;;;;;;;;;;;;;;;;6192885;23;19924;-91
2023/04/03 15:04:20;;;;;;;;;;;;;;;;;;6217560;23;19935;-93
2023/04/03 15:14:37;;;;;;;;;;;;;;;;;;6192174;23;19924;-93
2023/04/03 15:17:03;;;;;;;;;;;;;;;;;;6182727;23;19968;-94
2023/04/03 15:19:48;;;;;;;;;;;;;;;;;;6194990;23;19920;-91
2023/04/03 15:22:17;;;;;;;;;;;;;;;;;;6194772;23;19911;-92
2023/04/03 15:30:09;;;;;;;;;;;;;;;;;;6139482;23;19920;-92
2023/04/03 15:32:36;;;;;;;;;;;;;;;;;;6179255;23;19916;-93
2023/04/03 15:35:02;;;;;;;;;;;;;;;;;;6156268;23;19916;-95
2023/04/03 15:45:15;;;;;;;;;;;;;;;;;;6177609;23;19920;-86
2023/04/03 15:47:45;;;;;;;;;;;;;;;;;;6201213;23;19942;-88
2023/04/03 15:50:11;;;;;;;;;;;;;;;;;;6171444;23;19916;-87
2023/04/03 15:52:37;;;;;;;;;;;;;;;;;;6171807;23;19924;-88
2023/04/03 15:55:03;;;;;;;;;;;;;;;;;;6172071;23;19956;-88
2023/04/03 15:57:33;;;;;;;;;;;;;;;;;;6209862;23;19917;-86
2023/04/03 16:00:10;;;;;;;;;;;;;;;;;;6211794;23;19907;-86
2023/04/03 16:02:37;;;;;;;;;;;;;;;;;;6200326;23;19916;-86
2023/04/03 16:05:03;;;;;;;;;;;;;;;;;;6170122;23;19927;-86
2023/04/03 16:07:29;;;;;;;;;;;;;;;;;;6195579;23;19951;-86
2023/04/03 16:09:58;;;;;;;;;;;;;;;;;;6185756;23;19946;-87
2023/04/03 16:12:36;;;;;;;;;;;;;;;;;;6188550;23;19920;-87
2023/04/03 16:15:19;;;;;;;;;;;;;;;;;;6211682;23;19935;-87
2023/04/03 16:17:47;;;;;;;;;;;;;;;;;;6210300;23;19920;-96
2023/04/03 16:20:16;;;;;;;;;;;;;;;;;;6188646;23;19944;-93
2023/04/03 16:22:55;;;;;;;;;;;;;;;;;;6223823;23;19972;-94
2023/04/03 16:25:39;;;;;;;;;;;;;;;;;;6211688;23;19920;-94
2023/04/03 16:30:42;;;;;;;;;;;;;;;;;;6231150;23;19922;-94
2023/04/03 16:35:50;;;;;;;;;;;;;;;;;;6213111;23;19971;-94
2023/04/03 16:40:56;;;;;;;;;;;;;;;;;;6206427;23;19924;-96
2023/04/03 16:43:22;;;;;;;;;;;;;;;;;;6187614;23;19920;-94
2023/04/03 16:45:51;;;;;;;;;;;;;;;;;;6153045;23;19940;-94
2023/04/03 16:48:17;;;;;;;;;;;;;;;;;;6174234;23;19917;-92
2023/04/03 16:50:44;;;;;;;;;;;;;;;;;;6179639;23;19923;-95
2023/04/03 16:53:19;;;;;;;;;;;;;;;;;;6181492;23;19920;-92
2023/04/03 17:00:57;;;;;;;;;;;;;;;;;;6161904;23;19912;-95
2023/04/03 17:03:25;;;;;;;;;;;;;;;;;;6177315;23;19929;-94
2023/04/03 17:05:51;;;;;;;;;;;;;;;;;;6180507;23;19955;-94
2023/04/03 17:08:17;;;;;;;;;;;;;;;;;;6182184;23;19923;-94
2023/04/03 17:10:43;;;;;;;;;;;;;;;;;;6182841;23;19985;-96
2023/04/03 17:13:10;;;;;;;;;;;;;;;;;;6186541;23;19920;-93
2023/04/03 17:15:53;;;;;;;;;;;;;;;;;;6207916;23;19944;-92
2023/04/03 17:18:19;;;;;;;;;;;;;;;;;;6179483;23;19917;-94
2023/04/03 17:20:45;;;;;;;;;;;;;;;;;;6179303;23;19916;-95
2023/04/03 17:23:11;;;;;;;;;;;;;;;;;;6183590;23;19960;-93
2023/04/03 17:28:31;;;;;;;;;;;;;;;;;;6159982;23;19968;-93
2023/04/03 17:30:57;;;;;;;;;;;;;;;;;;6190660;23;19920;-93
2023/04/03 17:33:23;;;;;;;;;;;;;;;;;;6194339;23;19912;-93
2023/04/03 17:36:10;;;;;;;;;;;;;;;;;;6244148;23;19910;-96
2023/04/03 17:38:47;;;;;;;;;;;;;;;;;;6147064;23;19920;-94
2023/04/03 17:41:13;;;;;;;;;;;;;;;;;;6155625;23;19927;-93
2023/04/03 17:43:39;;;;;;;;;;;;;;;;;;6155867;23;19956;-92
2023/04/03 17:46:05;;;;;;;;;;;;;;;;;;6156192;23;19924;-94
2023/04/03 17:48:31;;;;;;;;;;;;;;;;;;6159005;23;19928;-94
2023/04/03 17:50:57;;;;;;;;;;;;;;;;;;6164168;23;20343;-94
2023/04/03 17:53:24;;;;;;;;;;;;;;;;;;6156674;23;19948;-95
2023/04/03 17:55:50;;;;;;;;;;;;;;;;;;6157456;23;19935;-94
2023/04/03 17:58:16;;;;;;;;;;;;;;;;;;6158017;23;19920;-92
2023/04/03 18:03:19;;;;;;;;;;;;;;;;;;6180218;23;19912;-91
2023/04/03 18:08:21;;;;;;;;;;;;;;;;;;6152813;23;19904;-93
2023/04/03 18:18:34;;;;;;;;;;;;;;;;;;6157340;23;19921;-92
2023/04/03 18:21:04;;;;;;;;;;;;;;;;;;6135455;23;19904;-92
2023/04/03 18:39:41;;;;;;;;;;;;;;;;;;6221905;23;19904;-95
2023/04/03 18:42:06;;;;;;;;;;;;;;;;;;6185904;23;20007;-94
2023/04/03 18:44:32;;;;;;;;;;;;;;;;;;6193481;23;19926;-93
2023/04/03 18:47:04;;;;;;;;;;;;;;;;;;6192713;23;19904;-92
2023/04/03 18:49:30;;;;;;;;;;;;;;;;;;6180843;23;19905;-93
2023/04/03 18:51:58;;;;;;;;;;;;;;;;;;6177393;23;19921;-95
2023/04/03 18:54:24;;;;;;;;;;;;;;;;;;6149199;23;19956;-94
2023/04/03 18:56:51;;;;;;;;;;;;;;;;;;6151420;23;19904;-94
2023/04/03 18:59:18;;;;;;;;;;;;;;;;;;6183846;23;19913;-94
2023/04/03 19:09:32;;;;;;;;;;;;;;;;;;6174245;23;19951;-93
2023/04/03 19:22:22;;;;;;;;;;;;;;;;;;6198630;23;19921;-93
2023/04/03 19:24:48;;;;;;;;;;;;;;;;;;6182358;23;20111;-93
2023/04/03 19:27:14;;;;;;;;;;;;;;;;;;6182597;23;19916;-94
2023/04/03 19:34:51;;;;;;;;;;;;;;;;;;6214065;23;19923;-95
2023/04/03 19:37:18;;;;;;;;;;;;;;;;;;6183523;23;19915;-94
2023/04/03 19:39:44;;;;;;;;;;;;;;;;;;6182305;23;19923;-94
2023/04/03 19:42:10;;;;;;;;;;;;;;;;;;6182326;23;19939;-95
2023/04/03 19:44:37;;;;;;;;;;;;;;;;;;6185239;23;19899;-95
2023/04/03 19:47:15;;;;;;;;;;;;;;;;;;6231104;23;19920;-93
2023/04/03 19:54:52;;;;;;;;;;;;;;;;;;6165177;23;19931;-95
2023/04/03 19:57:18;;;;;;;;;;;;;;;;;;6148077;23;19948;-93
2023/04/03 19:59:45;;;;;;;;;;;;;;;;;;6177500;23;19935;-95
2023/04/03 20:02:30;;;;;;;;;;;;;;;;;;6184372;23;19903;-94
2023/04/03 20:04:59;;;;;;;;;;;;;;;;;;6157175;23;19932;-86
2023/04/03 20:07:27;;;;;;;;;;;;;;;;;;6175630;23;19917;-87
2023/04/03 20:09:59;;;;;;;;;;;;;;;;;;6179579;23;19940;-87
2023/04/03 20:12:41;;;;;;;;;;;;;;;;;;6181364;23;19901;-88
2023/04/03 20:15:11;;;;;;;;;;;;;;;;;;6156198;23;19969;-87
2023/04/03 20:17:38;;;;;;;;;;;;;;;;;;6154221;23;19921;-86
2023/04/03 20:20:04;;;;;;;;;;;;;;;;;;6176205;23;20373;-85
2023/04/03 20:22:31;;;;;;;;;;;;;;;;;;6139426;23;19916;-86
2023/04/03 20:24:57;;;;;;;;;;;;;;;;;;6164480;23;20228;-86
2023/04/03 20:27:23;;;;;;;;;;;;;;;;;;6164177;23;19924;-86
2023/04/03 20:29:49;;;;;;;;;;;;;;;;;;6139379;23;19916;-86
2023/04/03 20:32:34;;;;;;;;;;;;;;;;;;6150012;23;19921;-84
2023/04/03 20:35:05;;;;;;;;;;;;;;;;;;6176992;23;19917;-85
2023/04/03 20:37:32;;;;;;;;;;;;;;;;;;6167292;23;19920;-85
2023/04/03 20:39:59;;;;;;;;;;;;;;;;;;6141306;23;19948;-86
2023/04/03 20:42:25;;;;;;;;;;;;;;;;;;6167444;23;19920;-86
2023/04/03 20:44:52;;;;;;;;;;;;;;;;;;6155540;23;19947;-85
2023/04/03 20:47:22;;;;;;;;;;;;;;;;;;6180086;23;19940;-85
2023/04/03 20:49:48;;;;;;;;;;;;;;;;;;6158391;23;19916;-86
2023/04/03 20:52:14;;;;;;;;;;;;;;;;;;6158362;23;19916;-85
2023/04/03 20:54:51;;;;;;;;;;;;;;;;;;6182827;23;19936;-85
2023/04/03 20:57:27;;;;;;;;;;;;;;;;;;6174991;23;19920;-86
2023/04/03 20:59:53;;;;;;;;;;;;;;;;;;6141803;23;19951;-85
2023/04/03 21:02:19;;;;;;;;;;;;;;;;;;6166392;23;19916;-86
2023/04/03 21:04:45;;;;;;;;;;;;;;;;;;6142454;23;19991;-86
2023/04/03 21:07:11;;;;;;;;;;;;;;;;;;6149590;23;19916;-85
2023/04/03 21:09:37;;;;;;;;;;;;;;;;;;6142324;23;20385;-86
2023/04/03 21:12:03;;;;;;;;;;;;;;;;;;6141764;23;19916;-85
2023/04/03 21:14:30;;;;;;;;;;;;;;;;;;6167292;23;19948;-85
2023/04/03 21:16:56;;;;;;;;;;;;;;;;;;6143224;23;19917;-85
2023/04/03 21:19:22;;;;;;;;;;;;;;;;;;6141969;23;19925;-85
2023/04/03 21:21:50;;;;;;;;;;;;;;;;;;6169873;23;19921;-86
2023/04/03 21:24:18;;;;;;;;;;;;;;;;;;6160491;23;19924;-87
2023/04/03 21:26:47;;;;;;;;;;;;;;;;;;6159821;23;19917;-86
2023/04/03 21:29:13;;;;;;;;;;;;;;;;;;6167895;23;19924;-86
2023/04/03 21:31:40;;;;;;;;;;;;;;;;;;6152562;23;20264;-86
2023/04/03 21:34:07;;;;;;;;;;;;;;;;;;6183382;23;19978;-86
2023/04/03 21:36:45;;;;;;;;;;;;;;;;;;6183378;23;19952;-87
2023/04/03 21:39:14;;;;;;;;;;;;;;;;;;6183072;23;19923;-86
2023/04/03 21:41:41;;;;;;;;;;;;;;;;;;6158457;23;19917;-86
2023/04/03 21:44:07;;;;;;;;;;;;;;;;;;6182108;23;19948;-86
2023/04/03 21:46:34;;;;;;;;;;;;;;;;;;6157548;23;19917;-87
2023/04/03 21:49:00;;;;;;;;;;;;;;;;;;6158090;23;19916;-87
2023/04/03 21:57:14;;;;;;;;;;;;;;;;;;6241141;23;19923;-86
2023/04/03 21:59:40;;;;;;;;;;;;;;;;;;6190955;23;19939;-87
2023/04/03 22:02:11;;;;;;;;;;;;;;;;;;6214557;23;19916;-86
2023/04/03 22:04:40;;;;;;;;;;;;;;;;;;6175836;23;19916;-86
2023/04/03 22:07:06;;;;;;;;;;;;;;;;;;6176389;23;20360;-86
2023/04/03 22:09:32;;;;;;;;;;;;;;;;;;6186971;23;19915;-85
2023/04/03 22:11:58;;;;;;;;;;;;;;;;;;6175338;23;19923;-85
2023/04/03 22:14:25;;;;;;;;;;;;;;;;;;6175518;23;19978;-85
2023/04/03 22:16:51;;;;;;;;;;;;;;;;;;6174721;23;19959;-86
2023/04/03 22:19:17;;;;;;;;;;;;;;;;;;6174528;23;20469;-87
2023/04/03 22:21:44;;;;;;;;;;;;;;;;;;6185671;23;19915;-87
2023/04/03 22:24:12;;;;;;;;;;;;;;;;;;6212007;23;19923;-86
2023/04/03 22:26:43;;;;;;;;;;;;;;;;;;6210304;23;19940;-85
2023/04/03 22:29:10;;;;;;;;;;;;;;;;;;6216031;23;19922;-86
2023/04/03 22:31:36;;;;;;;;;;;;;;;;;;6181903;23;19916;-85
2023/04/03 22:34:03;;;;;;;;;;;;;;;;;;6175021;23;20360;-85